createdAt,value
2022-08-26T00:01:47.039Z,9.65
2022-08-26T00:04:14.468Z,9.80
2022-08-26T00:06:42.295Z,9.25
2022-08-26T00:09:13.463Z,9.60
2022-08-26T00:11:43.750Z,9.32
2022-08-26T00:14:11.074Z,9.20
2022-08-26T00:16:41.042Z,9.10
2022-08-26T00:19:15.697Z,9.50
2022-08-26T00:21:43.079Z,9.32
2022-08-26T00:24:10.508Z,8.75
2022-08-26T00:26:38.791Z,9.25
2022-08-26T00:29:08.692Z,9.20
2022-08-26T00:31:36.766Z,9.27
2022-08-26T00:34:04.685Z,8.85
2022-08-26T00:36:32.514Z,9.43
2022-08-26T00:38:59.959Z,8.98
2022-08-26T00:41:29.410Z,9.10
2022-08-26T00:43:57.412Z,8.68
2022-08-26T00:46:25.303Z,8.90
2022-08-26T00:48:53.005Z,10.00
2022-08-26T00:51:20.198Z,9.75
2022-08-26T00:53:47.550Z,10.20
2022-08-26T00:56:15.248Z,10.32
2022-08-26T00:58:43.188Z,10.38
2022-08-26T01:01:10.711Z,9.32
2022-08-26T01:03:38.099Z,10.30
2022-08-26T01:06:12.599Z,10.60
2022-08-26T01:08:40.521Z,10.23
2022-08-26T01:11:07.975Z,10.52
2022-08-26T01:13:35.627Z,10.10
2022-08-26T01:16:02.978Z,10.88
2022-08-26T01:18:30.484Z,10.55
2022-08-26T01:20:57.978Z,10.30
2022-08-26T01:23:27.459Z,10.18
2022-08-26T01:25:55.836Z,10.65
2022-08-26T01:28:23.262Z,11.82
2022-08-26T01:30:51.906Z,11.13
2022-08-26T01:33:19.197Z,10.40
2022-08-26T01:35:46.553Z,11.40
2022-08-26T01:38:16.119Z,10.98
2022-08-26T01:40:44.155Z,11.40
2022-08-26T01:43:14.663Z,11.68
2022-08-26T01:45:41.992Z,11.77
2022-08-26T01:48:11.555Z,11.77
2022-08-26T01:50:38.820Z,12.50
2022-08-26T01:53:06.220Z,12.20
2022-08-26T01:55:34.150Z,12.23
2022-08-26T01:58:01.420Z,11.73
2022-08-26T02:00:28.684Z,11.48
2022-08-26T02:03:15.821Z,12.23
2022-08-26T02:05:44.541Z,12.10
2022-08-26T02:08:11.829Z,11.85
2022-08-26T02:10:41.248Z,11.63
2022-08-26T02:13:10.113Z,13.20
2022-08-26T02:15:37.410Z,12.35
2022-08-26T02:18:04.718Z,11.35
2022-08-26T02:20:31.984Z,11.38
2022-08-26T02:22:59.293Z,11.27
2022-08-26T02:25:26.481Z,12.68
2022-08-26T02:27:54.710Z,11.63
2022-08-26T02:30:23.250Z,13.23
2022-08-26T02:32:51.801Z,12.15
2022-08-26T02:35:20.191Z,13.02
2022-08-26T02:37:47.640Z,12.02
2022-08-26T02:40:16.965Z,13.30
2022-08-26T02:42:44.377Z,12.32
2022-08-26T02:45:11.671Z,14.85
2022-08-26T02:47:39.300Z,13.77
2022-08-26T02:50:06.653Z,12.60
2022-08-26T02:52:35.276Z,13.07
2022-08-26T02:55:02.513Z,13.25
2022-08-26T02:57:29.735Z,13.77
2022-08-26T02:59:56.968Z,12.88
2022-08-26T03:02:27.543Z,13.27
2022-08-26T03:04:58.124Z,13.07
2022-08-26T03:07:29.333Z,13.40
2022-08-26T03:09:57.186Z,13.20
2022-08-26T03:12:25.584Z,14.38
2022-08-26T03:14:53.036Z,14.90
2022-08-26T03:17:21.167Z,15.48
2022-08-26T03:19:51.765Z,15.95
2022-08-26T03:22:21.577Z,17.55
2022-08-26T03:24:50.101Z,17.67
2022-08-26T03:27:17.418Z,16.60
2022-08-26T03:30:03.300Z,15.88
2022-08-26T03:32:30.705Z,16.83
2022-08-26T03:34:57.941Z,17.50
2022-08-26T03:37:25.947Z,16.38
2022-08-26T03:39:53.225Z,15.90
2022-08-26T03:42:22.159Z,17.42
2022-08-26T03:44:49.382Z,17.73
2022-08-26T03:47:17.131Z,17.60
2022-08-26T03:49:44.436Z,17.50
2022-08-26T03:52:12.693Z,17.63
2022-08-26T03:54:40.610Z,16.13
2022-08-26T03:57:10.765Z,15.07
2022-08-26T03:59:38.080Z,14.70
2022-08-26T04:02:11.595Z,15.13
2022-08-26T04:04:39.218Z,14.55
2022-08-26T04:07:06.453Z,14.52
2022-08-26T04:09:35.393Z,14.23
2022-08-26T04:12:03.647Z,13.68
2022-08-26T04:14:32.268Z,13.48
2022-08-26T04:16:59.794Z,14.55
2022-08-26T04:19:27.100Z,14.38
2022-08-26T04:21:54.299Z,13.50
2022-08-26T04:24:21.592Z,13.90
2022-08-26T04:26:48.815Z,14.88
2022-08-26T04:29:16.060Z,13.65
2022-08-26T04:31:43.500Z,13.38
2022-08-26T04:34:11.047Z,13.45
2022-08-26T04:36:38.604Z,13.73
2022-08-26T04:39:05.854Z,14.05
2022-08-26T04:41:33.060Z,13.05
2022-08-26T04:44:01.784Z,14.65
2022-08-26T04:46:29.316Z,13.60
2022-08-26T04:48:56.865Z,14.50
2022-08-26T04:51:28.062Z,14.55
2022-08-26T04:53:57.228Z,14.50
2022-08-26T04:56:24.650Z,15.65
2022-08-26T04:58:51.903Z,15.38
2022-08-26T05:01:19.274Z,14.35
2022-08-26T05:03:46.826Z,14.45
2022-08-26T05:06:14.112Z,16.45
2022-08-26T05:08:41.380Z,16.98
2022-08-26T05:11:09.378Z,16.70
2022-08-26T05:13:38.170Z,17.00
2022-08-26T05:16:05.537Z,16.67
2022-08-26T05:18:34.252Z,16.92
2022-08-26T05:21:03.590Z,16.50
2022-08-26T05:23:32.137Z,16.70
2022-08-26T05:26:00.399Z,16.35
2022-08-26T05:28:28.473Z,16.67
2022-08-26T05:30:55.844Z,16.67
2022-08-26T05:33:23.191Z,16.27
2022-08-26T05:35:50.792Z,16.67
2022-08-26T05:38:19.276Z,16.58
2022-08-26T05:40:46.785Z,16.77
2022-08-26T05:43:14.041Z,16.50
2022-08-26T05:45:45.932Z,17.08
2022-08-26T05:48:13.762Z,16.23
2022-08-26T05:50:40.944Z,17.52
2022-08-26T05:53:10.272Z,17.23
2022-08-26T05:55:37.502Z,16.77
2022-08-26T05:58:07.537Z,16.15
2022-08-26T06:00:35.450Z,16.63
2022-08-26T06:03:03.768Z,16.27
2022-08-26T06:05:35.333Z,16.02
2022-08-26T06:08:13.682Z,15.20
2022-08-26T06:10:42.688Z,16.38
2022-08-26T06:13:12.074Z,17.35
2022-08-26T06:15:39.693Z,16.80
2022-08-26T06:18:09.404Z,16.77
2022-08-26T06:20:37.531Z,17.10
2022-08-26T06:23:23.889Z,17.02
2022-08-26T06:25:53.799Z,15.70
2022-08-26T06:28:20.992Z,14.70
2022-08-26T06:30:48.669Z,15.80
2022-08-26T06:33:15.913Z,18.13
2022-08-26T06:35:43.153Z,16.00
2022-08-26T06:38:10.367Z,16.33
2022-08-26T06:40:37.672Z,16.73
2022-08-26T06:43:05.937Z,17.23
2022-08-26T06:45:33.194Z,16.25
2022-08-26T06:48:00.454Z,16.48
2022-08-26T06:50:28.458Z,16.95
2022-08-26T06:52:55.686Z,16.95
2022-08-26T06:55:27.015Z,17.38
2022-08-26T06:57:54.476Z,16.83
2022-08-26T07:00:21.718Z,17.23
2022-08-26T07:02:49.506Z,16.10
2022-08-26T07:05:17.505Z,15.80
2022-08-26T07:07:45.111Z,14.63
2022-08-26T07:10:12.449Z,14.82
2022-08-26T07:12:39.827Z,16.15
2022-08-26T07:15:08.570Z,15.20
2022-08-26T07:17:35.974Z,12.57
2022-08-26T07:20:03.724Z,11.25
2022-08-26T07:22:32.360Z,10.60
2022-08-26T07:24:59.618Z,10.93
2022-08-26T07:27:27.400Z,9.07
2022-08-26T07:29:56.500Z,9.45
2022-08-26T07:32:23.706Z,8.05
2022-08-26T07:34:51.135Z,9.55
2022-08-26T07:37:18.634Z,8.20
2022-08-26T07:39:47.519Z,7.93
2022-08-26T07:42:16.421Z,8.25
2022-08-26T07:44:45.834Z,9.27
2022-08-26T07:47:25.580Z,8.55
2022-08-26T07:49:54.257Z,7.93
2022-08-26T07:52:26.010Z,8.25
2022-08-26T07:54:54.196Z,7.32
2022-08-26T07:57:21.729Z,8.13
2022-08-26T07:59:51.604Z,8.88
2022-08-26T08:02:21.244Z,8.82
2022-08-26T08:04:48.571Z,7.47
2022-08-26T08:07:16.106Z,6.53
2022-08-26T08:09:43.409Z,7.15
2022-08-26T08:12:14.266Z,7.50
2022-08-26T08:14:45.189Z,8.25
2022-08-26T08:19:39.638Z,5.80
2022-08-26T08:22:17.626Z,6.65
2022-08-26T08:24:49.696Z,6.80
2022-08-26T08:27:22.839Z,8.70
2022-08-26T08:29:54.327Z,7.20
2022-08-26T08:32:22.302Z,7.47
2022-08-26T08:34:49.541Z,5.20
2022-08-26T08:37:16.813Z,5.70
2022-08-26T08:39:44.010Z,5.20
2022-08-26T08:42:11.508Z,5.38
2022-08-26T08:44:38.741Z,5.22
2022-08-26T08:47:06.256Z,4.50
2022-08-26T08:49:33.497Z,5.47
2022-08-26T08:52:00.728Z,4.65
2022-08-26T08:54:29.163Z,5.03
2022-08-26T08:56:57.601Z,3.60
2022-08-26T08:59:27.136Z,4.00
2022-08-26T09:01:56.591Z,4.22
2022-08-26T09:04:23.902Z,4.20
2022-08-26T09:06:51.335Z,4.35
2022-08-26T09:09:18.706Z,3.92
2022-08-26T09:11:46.063Z,2.35
2022-08-26T09:14:13.327Z,2.38
2022-08-26T09:16:40.600Z,2.40
2022-08-26T09:19:10.825Z,2.60
2022-08-26T09:21:38.287Z,1.80
2022-08-26T09:24:06.487Z,2.10
2022-08-26T09:26:33.745Z,2.40
2022-08-26T09:29:01.485Z,2.50
2022-08-26T09:31:28.857Z,3.13
2022-08-26T09:33:56.522Z,2.63
2022-08-26T09:36:26.497Z,3.17
2022-08-26T09:38:54.434Z,3.17
2022-08-26T09:41:21.775Z,2.67
2022-08-26T09:43:49.113Z,3.05
2022-08-26T09:46:17.708Z,2.50
2022-08-26T09:48:45.057Z,2.45
2022-08-26T09:51:12.563Z,2.30
2022-08-26T09:53:42.738Z,2.50
2022-08-26T09:56:10.298Z,2.63
2022-08-26T09:58:37.824Z,1.70
2022-08-26T10:01:05.617Z,2.45
2022-08-26T10:03:33.301Z,2.10
2022-08-26T10:06:00.923Z,2.40
2022-08-26T10:08:30.580Z,1.98
2022-08-26T10:10:57.929Z,2.72
2022-08-26T10:13:26.486Z,2.45
2022-08-26T10:15:56.939Z,2.28
2022-08-26T10:18:30.702Z,2.38
2022-08-26T10:21:00.630Z,2.47
2022-08-26T10:23:28.784Z,1.50
2022-08-26T10:25:59.116Z,2.25
2022-08-26T10:28:26.598Z,2.30
2022-08-26T10:30:54.974Z,1.83
2022-08-26T10:33:23.337Z,2.17
2022-08-26T10:35:51.152Z,2.35
2022-08-26T10:38:18.526Z,2.05
2022-08-26T10:40:46.265Z,2.50
2022-08-26T10:43:16.936Z,2.00
2022-08-26T10:45:44.351Z,1.90
2022-08-26T10:48:11.787Z,2.00
2022-08-26T10:50:39.294Z,2.28
2022-08-26T10:53:07.517Z,1.88
2022-08-26T10:55:36.143Z,2.42
2022-08-26T10:58:05.004Z,2.08
2022-08-26T11:00:52.370Z,2.28
2022-08-26T11:03:22.043Z,2.00
2022-08-26T11:05:50.134Z,2.65
2022-08-26T11:08:17.518Z,2.38
2022-08-26T11:10:44.834Z,2.40
2022-08-26T11:13:12.215Z,1.83
2022-08-26T11:15:39.884Z,2.22
2022-08-26T11:18:08.026Z,2.17
2022-08-26T11:20:35.549Z,2.03
2022-08-26T11:23:03.060Z,2.03
2022-08-26T11:25:31.069Z,1.92
2022-08-26T11:27:59.564Z,2.03
2022-08-26T11:30:27.222Z,2.60
2022-08-26T11:32:54.866Z,1.90
2022-08-26T11:35:24.197Z,2.17
2022-08-26T11:37:51.666Z,2.10
2022-08-26T11:40:20.674Z,1.95
2022-08-26T11:42:49.250Z,2.10
2022-08-26T11:45:19.289Z,2.72
2022-08-26T11:47:47.483Z,1.98
2022-08-26T11:50:16.812Z,1.85
2022-08-26T11:52:44.202Z,2.17
2022-08-26T11:55:12.121Z,2.40
2022-08-26T11:57:39.898Z,2.10
2022-08-26T12:00:12.539Z,2.05
2022-08-26T12:02:41.594Z,2.22
2022-08-26T12:05:08.816Z,2.10
2022-08-26T12:07:36.372Z,2.45
2022-08-26T12:10:03.628Z,2.58
2022-08-26T12:12:34.674Z,1.67
2022-08-26T12:15:02.660Z,2.30
2022-08-26T12:17:31.826Z,2.40
2022-08-26T12:19:59.089Z,1.75
2022-08-26T12:22:26.406Z,1.90
2022-08-26T12:24:54.333Z,1.73
2022-08-26T12:27:21.553Z,1.60
2022-08-26T12:29:48.939Z,1.60
2022-08-26T12:32:18.326Z,1.90
2022-08-26T12:34:45.583Z,2.55
2022-08-26T12:37:13.006Z,1.88
2022-08-26T12:39:40.357Z,1.65
2022-08-26T12:42:07.929Z,2.30
2022-08-26T12:44:35.182Z,1.52
2022-08-26T12:47:02.502Z,1.95
2022-08-26T12:49:29.710Z,2.38
2022-08-26T12:51:57.025Z,1.55
2022-08-26T12:54:44.223Z,2.53
2022-08-26T12:57:11.592Z,1.45
2022-08-26T12:59:39.433Z,1.88
2022-08-26T13:02:06.900Z,2.08
2022-08-26T13:04:34.271Z,1.70
2022-08-26T13:07:01.542Z,1.73
2022-08-26T13:09:28.799Z,1.58
2022-08-26T13:11:56.068Z,2.20
2022-08-26T13:14:24.103Z,1.88
2022-08-26T13:16:51.791Z,2.20
2022-08-26T13:19:19.142Z,1.70
2022-08-26T13:21:49.578Z,2.05
2022-08-26T13:24:16.979Z,2.00
2022-08-26T13:26:44.308Z,2.05
2022-08-26T13:29:11.671Z,2.17
2022-08-26T13:31:39.151Z,1.95
2022-08-26T13:34:06.525Z,1.80
2022-08-26T13:36:33.770Z,1.90
2022-08-26T13:39:00.987Z,1.50
2022-08-26T13:41:29.439Z,2.17
2022-08-26T13:43:56.887Z,1.73
2022-08-26T13:46:26.324Z,1.73
2022-08-26T13:48:54.635Z,1.70
2022-08-26T13:51:22.729Z,1.92
2022-08-26T13:53:49.989Z,2.00
2022-08-26T13:56:18.862Z,1.80
2022-08-26T13:58:46.189Z,2.45
2022-08-26T14:01:13.593Z,1.50
2022-08-26T14:03:41.167Z,2.05
2022-08-26T14:06:08.583Z,2.17
2022-08-26T14:08:37.059Z,1.75
2022-08-26T14:11:04.705Z,1.77
2022-08-26T14:13:31.987Z,1.70
2022-08-26T14:16:01.442Z,1.67
2022-08-26T14:18:29.061Z,1.40
2022-08-26T14:20:56.918Z,1.60
2022-08-26T14:23:24.593Z,2.20
2022-08-26T14:25:52.643Z,2.45
2022-08-26T14:28:20.248Z,1.90
2022-08-26T14:30:47.687Z,2.30
2022-08-26T14:33:14.991Z,2.25
2022-08-26T14:35:47.911Z,2.00
2022-08-26T14:38:16.828Z,1.80
2022-08-26T14:40:47.182Z,1.42
2022-08-26T14:43:17.647Z,1.83
2022-08-26T14:45:45.696Z,2.08
2022-08-26T14:48:13.334Z,1.80
2022-08-26T14:50:40.842Z,1.60
2022-08-26T14:53:26.984Z,1.70
2022-08-26T14:55:54.389Z,1.63
2022-08-26T14:58:21.701Z,2.00
2022-08-26T15:00:48.935Z,1.80
2022-08-26T15:05:48.082Z,1.67
2022-08-26T15:08:15.948Z,2.08
2022-08-26T15:10:43.595Z,2.03
2022-08-26T15:13:10.871Z,1.50
2022-08-26T15:15:38.203Z,2.38
2022-08-26T15:18:06.069Z,1.42
2022-08-26T15:23:06.061Z,1.70
2022-08-26T15:25:33.596Z,1.63
2022-08-26T15:28:01.326Z,2.03
2022-08-26T15:30:28.677Z,1.55
2022-08-26T15:32:56.060Z,1.70
2022-08-26T15:35:23.551Z,1.92
2022-08-26T15:40:19.211Z,1.83
2022-08-26T15:42:57.586Z,1.80
2022-08-26T15:45:28.857Z,1.60
2022-08-26T15:48:01.246Z,1.70
2022-08-26T15:50:29.032Z,1.80
2022-08-26T15:52:56.386Z,1.92
2022-08-26T15:55:23.693Z,1.73
2022-08-26T15:57:51.049Z,2.03
2022-08-26T16:00:18.333Z,1.75
2022-08-26T16:02:45.700Z,1.75
2022-08-26T16:05:13.388Z,2.08
2022-08-26T16:07:40.625Z,1.88
2022-08-26T16:10:07.890Z,1.55
2022-08-26T16:12:35.169Z,2.13
2022-08-26T16:15:02.456Z,1.95
2022-08-26T16:17:29.675Z,1.58
2022-08-26T16:19:57.097Z,1.70
2022-08-26T16:22:24.514Z,1.42
2022-08-26T16:24:56.397Z,1.70
2022-08-26T16:27:23.615Z,1.55
2022-08-26T16:29:50.867Z,1.70
2022-08-26T16:32:18.161Z,1.85
2022-08-26T16:34:56.437Z,1.40
2022-08-26T16:37:24.341Z,2.10
2022-08-26T16:39:51.718Z,1.58
2022-08-26T16:42:18.984Z,1.73
2022-08-26T16:44:46.302Z,2.03
2022-08-26T16:47:13.716Z,1.98
2022-08-26T16:49:40.945Z,1.88
2022-08-26T16:52:08.278Z,1.73
2022-08-26T16:54:35.472Z,1.95
2022-08-26T16:57:02.785Z,1.63
2022-08-26T16:59:30.032Z,1.70
2022-08-26T17:01:57.351Z,1.60
2022-08-26T17:04:24.623Z,1.75
2022-08-26T17:06:51.932Z,1.70
2022-08-26T17:09:19.268Z,2.30
2022-08-26T17:11:46.594Z,1.65
2022-08-26T17:14:13.831Z,1.73
2022-08-26T17:16:41.142Z,2.65
2022-08-26T17:19:08.550Z,1.40
2022-08-26T17:21:35.951Z,2.40
2022-08-26T17:24:03.454Z,1.73
2022-08-26T17:26:30.719Z,1.48
2022-08-26T17:28:57.958Z,2.00
2022-08-26T17:31:25.304Z,1.80
2022-08-26T17:33:54.011Z,1.50
2022-08-26T17:36:21.625Z,1.50
2022-08-26T17:38:49.751Z,1.63
2022-08-26T17:41:19.805Z,1.60
2022-08-26T17:43:47.058Z,1.88
2022-08-26T17:46:14.498Z,2.20
2022-08-26T17:48:41.829Z,2.50
2022-08-26T17:51:09.168Z,2.40
2022-08-26T17:53:37.174Z,3.30
2022-08-26T17:56:04.427Z,4.25
2022-08-26T17:58:33.532Z,3.45
2022-08-26T18:01:01.900Z,4.28
2022-08-26T18:03:29.449Z,4.65
2022-08-26T18:05:57.410Z,4.60
2022-08-26T18:08:24.977Z,4.32
2022-08-26T18:10:52.395Z,4.50
2022-08-26T18:13:19.669Z,4.90
2022-08-26T18:15:47.016Z,4.78
2022-08-26T18:18:14.371Z,4.50
2022-08-26T18:20:41.720Z,5.60
2022-08-26T18:23:09.185Z,6.30
2022-08-26T18:25:37.002Z,4.93
2022-08-26T18:28:04.383Z,5.53
2022-08-26T18:30:31.738Z,5.68
2022-08-26T18:32:59.136Z,6.82
2022-08-26T18:35:28.554Z,5.72
2022-08-26T18:37:55.738Z,5.80
2022-08-26T18:40:23.204Z,5.95
2022-08-26T18:42:54.069Z,6.13
2022-08-26T18:45:21.542Z,6.25
2022-08-26T18:47:48.819Z,7.05
2022-08-26T18:50:16.253Z,6.03
2022-08-26T18:52:43.804Z,5.65
2022-08-26T18:55:11.285Z,5.22
2022-08-26T18:57:38.512Z,5.85
2022-08-26T19:00:05.839Z,6.32
2022-08-26T19:02:33.559Z,5.82
2022-08-26T19:05:00.939Z,5.40
2022-08-26T19:07:28.254Z,4.95
2022-08-26T19:09:55.520Z,4.93
2022-08-26T19:12:23.257Z,4.60
2022-08-26T19:14:54.298Z,3.90
2022-08-26T19:17:22.631Z,4.13
2022-08-26T19:19:50.258Z,3.38
2022-08-26T19:22:19.987Z,3.30
2022-08-26T19:24:47.418Z,3.55
2022-08-26T19:27:15.088Z,3.95
2022-08-26T19:29:42.421Z,3.33
2022-08-26T19:32:09.810Z,3.30
2022-08-26T19:34:37.096Z,3.80
2022-08-26T19:37:04.627Z,4.45
2022-08-26T19:39:32.068Z,3.58
2022-08-26T19:42:00.426Z,4.30
2022-08-26T19:44:46.677Z,4.65
2022-08-26T19:47:15.587Z,3.80
2022-08-26T19:49:42.906Z,3.63
2022-08-26T19:52:11.494Z,3.67
2022-08-26T19:54:38.893Z,3.20
2022-08-26T19:57:06.215Z,3.55
2022-08-26T19:59:33.467Z,3.28
2022-08-26T20:02:01.977Z,3.38
2022-08-26T20:04:29.615Z,3.10
2022-08-26T20:06:57.831Z,3.92
2022-08-26T20:09:27.666Z,2.70
2022-08-26T20:11:56.736Z,3.15
2022-08-26T20:14:24.233Z,3.65
2022-08-26T20:16:51.591Z,3.22
2022-08-26T20:19:37.822Z,3.15
2022-08-26T20:22:05.200Z,3.10
2022-08-26T20:24:32.663Z,3.30
2022-08-26T20:27:02.298Z,3.58
2022-08-26T20:29:32.370Z,2.88
2022-08-26T20:31:59.767Z,3.30
2022-08-26T20:34:27.540Z,3.05
2022-08-26T20:36:55.012Z,3.20
2022-08-26T20:39:22.322Z,2.70
2022-08-26T20:41:49.570Z,3.03
2022-08-26T20:44:17.630Z,3.22
2022-08-26T20:46:44.926Z,3.00
2022-08-26T20:49:13.240Z,3.00
2022-08-26T20:51:40.604Z,3.92
2022-08-26T20:54:07.900Z,3.67
2022-08-26T20:56:35.209Z,3.00
2022-08-26T20:59:02.485Z,4.47
2022-08-26T21:01:30.869Z,3.25
2022-08-26T21:03:58.186Z,3.45
2022-08-26T21:06:25.389Z,3.60
2022-08-26T21:08:53.870Z,3.25
2022-08-26T21:11:22.581Z,3.50
2022-08-26T21:14:04.452Z,4.07
2022-08-26T21:16:36.748Z,4.05
2022-08-26T21:19:04.099Z,3.90
2022-08-26T21:21:31.411Z,4.20
2022-08-26T21:23:58.907Z,3.20
2022-08-26T21:26:26.267Z,3.67
2022-08-26T21:28:53.536Z,3.78
2022-08-26T21:31:20.877Z,3.42
2022-08-26T21:33:48.490Z,3.80
2022-08-26T21:36:15.784Z,3.65
2022-08-26T21:38:43.221Z,3.67
2022-08-26T21:41:10.692Z,3.78
2022-08-26T21:43:38.351Z,3.80
2022-08-26T21:46:11.492Z,3.47
2022-08-26T21:48:39.132Z,3.55
2022-08-26T21:51:06.352Z,3.17
2022-08-26T21:53:33.610Z,3.65
2022-08-26T21:56:01.008Z,3.67
2022-08-26T21:58:28.254Z,3.53
2022-08-26T22:00:55.511Z,3.55
2022-08-26T22:03:23.208Z,3.78
2022-08-26T22:05:51.381Z,3.22
2022-08-26T22:08:20.139Z,3.40
2022-08-26T22:10:51.899Z,3.42
2022-08-26T22:13:19.613Z,3.55
2022-08-26T22:15:46.849Z,3.47
2022-08-26T22:18:14.114Z,3.45
2022-08-26T22:20:41.560Z,4.25
2022-08-26T22:23:09.012Z,4.18
2022-08-26T22:25:36.230Z,3.85
2022-08-26T22:28:03.844Z,3.60
2022-08-26T22:30:31.180Z,3.67
2022-08-26T22:32:58.490Z,3.65
2022-08-26T22:35:28.253Z,3.85
2022-08-26T22:37:57.136Z,4.05
2022-08-26T22:40:24.628Z,3.28
2022-08-26T22:42:57.849Z,3.10
2022-08-26T22:45:27.442Z,3.80
2022-08-26T22:47:54.809Z,3.50
2022-08-26T22:50:22.147Z,2.92
2022-08-26T22:52:49.521Z,3.67
2022-08-26T22:55:16.742Z,3.40
2022-08-26T22:57:44.065Z,2.95
2022-08-26T23:00:13.701Z,3.35
2022-08-26T23:02:41.402Z,3.53
2022-08-26T23:05:08.737Z,3.38
2022-08-26T23:07:36.468Z,3.47
2022-08-26T23:10:03.861Z,3.45
2022-08-26T23:12:31.498Z,3.53
2022-08-26T23:14:58.769Z,3.28
2022-08-26T23:17:25.978Z,2.92
2022-08-26T23:19:53.234Z,2.80
2022-08-26T23:22:20.481Z,2.78
2022-08-26T23:24:47.793Z,3.40
2022-08-26T23:27:14.999Z,3.38
2022-08-26T23:29:42.666Z,3.30
2022-08-26T23:32:09.911Z,3.42
2022-08-26T23:34:56.109Z,3.83
2022-08-26T23:37:23.464Z,3.88
2022-08-26T23:39:53.670Z,3.28
2022-08-26T23:42:20.942Z,3.00
2022-08-26T23:44:48.360Z,3.55
2022-08-26T23:47:16.204Z,3.40
2022-08-26T23:49:43.469Z,3.33
2022-08-26T23:52:29.561Z,3.40
2022-08-26T23:54:56.920Z,3.85
2022-08-26T23:57:24.235Z,3.20
2022-08-26T23:59:51.486Z,3.42
